Rosa Maersk — OVST2 — position and weather

sailwx.info

Track history (hours):
 
Tides and Currents Weather Stations Pressure Air Temp Water Temp Dewpoint Dewpoint Depression Visibility Wind Speed Wind Dir Waves Ship Positions

Rosa Maersk

Last reported at 2016-Dec-04 11:33 UTC. Time now 2016-Dec-04 12:22 UTC.
Position N 37°47' E 024°20'.

Length 172 m; draft 12 m.

Type: Ship. MMSI: 220288000.

Date/timePositionNaut miles runAvg speedWind from/ knotsBaromVisibWave heightAir tempDewpointWater temp
2016-Dec-04 11:33N 37°47' E 024°20'1312.1
2016-Dec-04 10:27N 37°55' E 024°34'  
2016-Nov-30 17:32N 44°30' E 037°36'1212.1
2016-Nov-30 16:33N 44°38' E 037°48'5 5.0
2016-Nov-30 15:31N 44°43' E 037°50'0 0.0
2016-Nov-30 14:31N 44°43' E 037°50'0 0.0
2016-Nov-30 13:31N 44°43' E 037°50'0 0.0
2016-Nov-30 12:31N 44°43' E 037°50'0 0.0
2016-Nov-30 11:31N 44°43' E 037°50'0 0.0
2016-Nov-30 10:31N 44°43' E 037°50'0 0.0
2016-Nov-30 09:31N 44°43' E 037°50'0 0.0
2016-Nov-30 08:31N 44°43' E 037°50'0 0.0
2016-Nov-30 07:34N 44°43' E 037°50'0 0.0
2016-Nov-30 06:33N 44°43' E 037°50'0 0.0
2016-Nov-30 05:33N 44°43' E 037°50'0 0.0
2016-Nov-30 04:33N 44°43' E 037°50'0 0.0
2016-Nov-30 03:33N 44°43' E 037°50'0 0.0
2016-Nov-30 02:33N 44°43' E 037°50'0 0.0
2016-Nov-30 01:33N 44°43' E 037°50'0 0.0
2016-Nov-30 00:33N 44°43' E 037°50'0 0.0
2016-Nov-29 23:33N 44°43' E 037°50'0 0.0
2016-Nov-29 22:33N 44°43' E 037°50'0 0.0
2016-Nov-29 21:33N 44°43' E 037°50'0 0.0
2016-Nov-29 20:33N 44°43' E 037°50'0 0.0
2016-Nov-29 19:33N 44°43' E 037°50'0 0.0
2016-Nov-29 18:33N 44°43' E 037°50'0 0.0
2016-Nov-29 17:33N 44°43' E 037°50'0 0.0
2016-Nov-29 16:33N 44°43' E 037°50'0 0.0
2016-Nov-29 15:33N 44°43' E 037°50'0 0.0
2016-Nov-29 14:33N 44°43' E 037°50'0 0.0
2016-Nov-29 12:33N 44°43' E 037°50'0 0.0
2016-Nov-29 11:33N 44°43' E 037°50'0 0.0
2016-Nov-29 10:33N 44°43' E 037°50'0 0.0
2016-Nov-29 09:33N 44°43' E 037°50'0 0.0
2016-Nov-29 08:30N 44°43' E 037°50'0 0.0
2016-Nov-29 07:33N 44°43' E 037°50'0 0.0
2016-Nov-29 06:33N 44°43' E 037°50'0 0.0
2016-Nov-29 05:33N 44°43' E 037°50'0 0.0
2016-Nov-29 04:33N 44°43' E 037°50'0 0.0
2016-Nov-29 03:33N 44°43' E 037°50'0 0.0
2016-Nov-29 02:33N 44°43' E 037°50'0 0.3
2016-Nov-29 01:33N 44°43' E 037°50'2 2.4
2016-Nov-29 00:33N 44°40' E 037°50'3 3.5
2016-Nov-28 23:33N 44°37' E 037°52'7 6.6
2016-Nov-28 22:33N 44°32' E 037°46'7 6.8
2016-Nov-28 21:33N 44°31' E 037°36'1 0.8
2016-Nov-28 20:07N 44°32' E 037°38'0 0.6
2016-Nov-28 19:33N 44°32' E 037°38'2 0.6
2016-Nov-28 16:34N 44°30' E 037°39'1 1.2
2016-Nov-28 15:33N 44°29' E 037°39'5 4.6
2016-Nov-28 14:33N 44°33' E 037°36'0 0.1
2016-Nov-28 12:33N 44°33' E 037°36'1 1.0
2016-Nov-28 11:32N 44°32' E 037°36'1 1.2
2016-Nov-28 10:33N 44°31' E 037°36'2 1.1
2016-Nov-28 09:11N 44°30' E 037°38'1 2.1
2016-Nov-28 08:33N 44°31' E 037°37'4 1.9
2016-Nov-28 06:33N 44°34' E 037°34'7 1.8
2016-Nov-28 02:33N 44°30' E 037°42'2 1.4
2016-Nov-28 01:26N 44°29' E 037°41'4 4.9
2016-Nov-28 00:33N 44°33' E 037°42'0 0.5
2016-Nov-27 23:32N 44°33' E 037°42'2 2.2
2016-Nov-27 22:33N 44°31' E 037°40'2 2.2
2016-Nov-27 21:29N 44°30' E 037°37'5 5.1
2016-Nov-27 20:33N 44°34' E 037°34'6 1.4
2016-Nov-27 16:26N 44°29' E 037°38'5 1.4
2016-Nov-27 12:33N 44°34' E 037°34'2 1.7
2016-Nov-27 11:16N 44°32' E 037°36'3 1.7
2016-Nov-27 09:33N 44°29' E 037°38'2 1.9
2016-Nov-27 08:33N 44°30' E 037°40'9 8.8
2016-Nov-27 07:33N 44°37' E 037°48'6 5.7
2016-Nov-27 06:33N 44°43' E 037°50'0 0.0
2016-Nov-27 05:33N 44°43' E 037°50'0 0.0
2016-Nov-27 04:33N 44°43' E 037°50'0 0.0
2016-Nov-27 03:33N 44°43' E 037°50'0 0.0
2016-Nov-27 02:33N 44°43' E 037°50'0 0.0
2016-Nov-27 01:33N 44°43' E 037°50'0 0.0
2016-Nov-27 00:33N 44°43' E 037°50'0 0.0
2016-Nov-26 23:12N 44°43' E 037°50'0 0.0
2016-Nov-26 22:33N 44°43' E 037°50'0 0.0
2016-Nov-26 21:33N 44°43' E 037°50'0 0.0
2016-Nov-26 20:33N 44°43' E 037°50'2 1.6
2016-Nov-26 19:33N 44°41' E 037°50'6 5.7
2016-Nov-26 18:34N 44°35' E 037°51'8 8.1
2016-Nov-26 17:33N 44°29' E 037°44'2 1.5
2016-Nov-26 16:07N 44°27' E 037°42'0 0.2
2016-Nov-26 15:33N 44°27' E 037°42'  
Track history (hours):
 
Tides and Currents Weather Stations Pressure Air Temp Water Temp Dewpoint Dewpoint Depression Visibility Wind Speed Wind Dir Waves Ship Positions

Rosa Maersk

Last reported at 2016-Dec-04 11:33 UTC. Time now 2016-Dec-04 12:22 UTC.
Position N 37°47' E 024°20'.

Length 172 m; draft 12 m.

Type: Ship. MMSI: 220288000.

Date/timePositionNaut miles runAvg speedWind from/ knotsBaromVisibWave heightAir tempDewpointWater temp
2016-Dec-04 11:33N 37°47' E 024°20'1312.1
2016-Dec-04 10:27N 37°55' E 024°34'  
2016-Nov-30 17:32N 44°30' E 037°36'1212.1
2016-Nov-30 16:33N 44°38' E 037°48'5 5.0
2016-Nov-30 15:31N 44°43' E 037°50'0 0.0
2016-Nov-30 14:31N 44°43' E 037°50'0 0.0
2016-Nov-30 13:31N 44°43' E 037°50'0 0.0
2016-Nov-30 12:31N 44°43' E 037°50'0 0.0
2016-Nov-30 11:31N 44°43' E 037°50'0 0.0
2016-Nov-30 10:31N 44°43' E 037°50'0 0.0
2016-Nov-30 09:31N 44°43' E 037°50'0 0.0
2016-Nov-30 08:31N 44°43' E 037°50'0 0.0
2016-Nov-30 07:34N 44°43' E 037°50'0 0.0
2016-Nov-30 06:33N 44°43' E 037°50'0 0.0
2016-Nov-30 05:33N 44°43' E 037°50'0 0.0
2016-Nov-30 04:33N 44°43' E 037°50'0 0.0
2016-Nov-30 03:33N 44°43' E 037°50'0 0.0
2016-Nov-30 02:33N 44°43' E 037°50'0 0.0
2016-Nov-30 01:33N 44°43' E 037°50'0 0.0
2016-Nov-30 00:33N 44°43' E 037°50'0 0.0
2016-Nov-29 23:33N 44°43' E 037°50'0 0.0
2016-Nov-29 22:33N 44°43' E 037°50'0 0.0
2016-Nov-29 21:33N 44°43' E 037°50'0 0.0
2016-Nov-29 20:33N 44°43' E 037°50'0 0.0
2016-Nov-29 19:33N 44°43' E 037°50'0 0.0
2016-Nov-29 18:33N 44°43' E 037°50'0 0.0
2016-Nov-29 17:33N 44°43' E 037°50'0 0.0
2016-Nov-29 16:33N 44°43' E 037°50'0 0.0
2016-Nov-29 15:33N 44°43' E 037°50'0 0.0
2016-Nov-29 14:33N 44°43' E 037°50'0 0.0
2016-Nov-29 12:33N 44°43' E 037°50'0 0.0
2016-Nov-29 11:33N 44°43' E 037°50'0 0.0
2016-Nov-29 10:33N 44°43' E 037°50'0 0.0
2016-Nov-29 09:33N 44°43' E 037°50'0 0.0
2016-Nov-29 08:30N 44°43' E 037°50'0 0.0
2016-Nov-29 07:33N 44°43' E 037°50'0 0.0
2016-Nov-29 06:33N 44°43' E 037°50'0 0.0
2016-Nov-29 05:33N 44°43' E 037°50'0 0.0
2016-Nov-29 04:33N 44°43' E 037°50'0 0.0
2016-Nov-29 03:33N 44°43' E 037°50'0 0.0
2016-Nov-29 02:33N 44°43' E 037°50'0 0.3
2016-Nov-29 01:33N 44°43' E 037°50'2 2.4
2016-Nov-29 00:33N 44°40' E 037°50'3 3.5
2016-Nov-28 23:33N 44°37' E 037°52'7 6.6
2016-Nov-28 22:33N 44°32' E 037°46'7 6.8
2016-Nov-28 21:33N 44°31' E 037°36'1 0.8
2016-Nov-28 20:07N 44°32' E 037°38'0 0.6
2016-Nov-28 19:33N 44°32' E 037°38'2 0.6
2016-Nov-28 16:34N 44°30' E 037°39'1 1.2
2016-Nov-28 15:33N 44°29' E 037°39'5 4.6
2016-Nov-28 14:33N 44°33' E 037°36'0 0.1
2016-Nov-28 12:33N 44°33' E 037°36'1 1.0
2016-Nov-28 11:32N 44°32' E 037°36'1 1.2
2016-Nov-28 10:33N 44°31' E 037°36'2 1.1
2016-Nov-28 09:11N 44°30' E 037°38'1 2.1
2016-Nov-28 08:33N 44°31' E 037°37'4 1.9
2016-Nov-28 06:33N 44°34' E 037°34'7 1.8
2016-Nov-28 02:33N 44°30' E 037°42'2 1.4
2016-Nov-28 01:26N 44°29' E 037°41'4 4.9
2016-Nov-28 00:33N 44°33' E 037°42'0 0.5
2016-Nov-27 23:32N 44°33' E 037°42'2 2.2
2016-Nov-27 22:33N 44°31' E 037°40'2 2.2
2016-Nov-27 21:29N 44°30' E 037°37'5 5.1
2016-Nov-27 20:33N 44°34' E 037°34'6 1.4
2016-Nov-27 16:26N 44°29' E 037°38'5 1.4
2016-Nov-27 12:33N 44°34' E 037°34'2 1.7
2016-Nov-27 11:16N 44°32' E 037°36'3 1.7
2016-Nov-27 09:33N 44°29' E 037°38'2 1.9
2016-Nov-27 08:33N 44°30' E 037°40'9 8.8
2016-Nov-27 07:33N 44°37' E 037°48'6 5.7
2016-Nov-27 06:33N 44°43' E 037°50'0 0.0
2016-Nov-27 05:33N 44°43' E 037°50'0 0.0
2016-Nov-27 04:33N 44°43' E 037°50'0 0.0
2016-Nov-27 03:33N 44°43' E 037°50'0 0.0
2016-Nov-27 02:33N 44°43' E 037°50'0 0.0
2016-Nov-27 01:33N 44°43' E 037°50'0 0.0
2016-Nov-27 00:33N 44°43' E 037°50'0 0.0
2016-Nov-26 23:12N 44°43' E 037°50'0 0.0
2016-Nov-26 22:33N 44°43' E 037°50'0 0.0
2016-Nov-26 21:33N 44°43' E 037°50'0 0.0
2016-Nov-26 20:33N 44°43' E 037°50'2 1.6
2016-Nov-26 19:33N 44°41' E 037°50'6 5.7
2016-Nov-26 18:34N 44°35' E 037°51'8 8.1
2016-Nov-26 17:33N 44°29' E 037°44'2 1.5
2016-Nov-26 16:07N 44°27' E 037°42'0 0.2
2016-Nov-26 15:33N 44°27' E 037°42'  

Dump ship's entire track history